sensor_id;sensor_type;location;lat;lon;timestamp;temperature;humidity
29813;DHT22;16707;48.106;11.548;2024-02-21T00:00:13;4.40;99.90
29813;DHT22;16707;48.106;11.548;2024-02-21T00:02:40;4.50;99.90
29813;DHT22;16707;48.106;11.548;2024-02-21T00:05:06;4.50;99.90
29813;DHT22;16707;48.106;11.548;2024-02-21T00:07:33;4.50;99.90
29813;DHT22;16707;48.106;11.548;2024-02-21T00:10:00;4.50;99.90
29813;DHT22;16707;48.106;11.548;2024-02-21T00:12:27;4.60;99.90
29813;DHT22;16707;48.106;11.548;2024-02-21T00:14:55;4.50;99.90
29813;DHT22;16707;48.106;11.548;2024-02-21T00:17:21;4.60;99.90
29813;DHT22;16707;48.106;11.548;2024-02-21T00:19:48;4.60;99.90
29813;DHT22;16707;48.106;11.548;2024-02-21T00:22:15;4.50;99.90
29813;DHT22;16707;48.106;11.548;2024-02-21T00:24:42;4.50;99.90
29813;DHT22;16707;48.106;11.548;2024-02-21T00:27:08;4.50;99.90
29813;DHT22;16707;48.106;11.548;2024-02-21T00:29:35;4.60;99.90
29813;DHT22;16707;48.106;11.548;2024-02-21T00:32:04;4.60;99.90
29813;DHT22;16707;48.106;11.548;2024-02-21T00:34:30;4.60;99.90
29813;DHT22;16707;48.106;11.548;2024-02-21T00:36:57;4.60;99.90
29813;DHT22;16707;48.106;11.548;2024-02-21T00:39:24;4.60;99.90
29813;DHT22;16707;48.106;11.548;2024-02-21T00:41:51;4.60;99.90
29813;DHT22;16707;48.106;11.548;2024-02-21T00:44:17;4.60;99.90
29813;DHT22;16707;48.106;11.548;2024-02-21T00:46:44;4.60;99.90
29813;DHT22;16707;48.106;11.548;2024-02-21T00:49:13;4.60;99.90
29813;DHT22;16707;48.106;11.548;2024-02-21T00:51:39;4.60;99.90
29813;DHT22;16707;48.106;11.548;2024-02-21T00:54:06;4.60;99.90
29813;DHT22;16707;48.106;11.548;2024-02-21T00:56:33;4.60;99.90
29813;DHT22;16707;48.106;11.548;2024-02-21T00:59:00;4.60;99.90
29813;DHT22;16707;48.106;11.548;2024-02-21T01:01:26;4.60;99.90
29813;DHT22;16707;48.106;11.548;2024-02-21T01:03:53;4.60;99.90
29813;DHT22;16707;48.106;11.548;2024-02-21T01:06:21;4.70;99.90
29813;DHT22;16707;48.106;11.548;2024-02-21T01:08:48;4.70;99.90
29813;DHT22;16707;48.106;11.548;2024-02-21T01:11:15;4.70;99.90
29813;DHT22;16707;48.106;11.548;2024-02-21T01:13:42;4.70;99.90
29813;DHT22;16707;48.106;11.548;2024-02-21T01:16:10;4.70;99.90
29813;DHT22;16707;48.106;11.548;2024-02-21T01:18:37;4.70;99.90
29813;DHT22;16707;48.106;11.548;2024-02-21T01:21:04;4.80;99.90
29813;DHT22;16707;48.106;11.548;2024-02-21T01:23:34;4.80;99.90
29813;DHT22;16707;48.106;11.548;2024-02-21T01:26:01;4.80;99.90
29813;DHT22;16707;48.106;11.548;2024-02-21T01:28:28;4.90;99.90
29813;DHT22;16707;48.106;11.548;2024-02-21T01:30:56;4.90;99.90
29813;DHT22;16707;48.106;11.548;2024-02-21T01:33:24;4.90;99.90
29813;DHT22;16707;48.106;11.548;2024-02-21T01:35:51;4.90;99.90
29813;DHT22;16707;48.106;11.548;2024-02-21T01:38:18;5.00;99.90
29813;DHT22;16707;48.106;11.548;2024-02-21T01:40:46;5.00;99.90
29813;DHT22;16707;48.106;11.548;2024-02-21T01:43:15;5.00;99.90
29813;DHT22;16707;48.106;11.548;2024-02-21T01:45:42;5.00;99.90
29813;DHT22;16707;48.106;11.548;2024-02-21T01:48:09;4.90;99.90
29813;DHT22;16707;48.106;11.548;2024-02-21T01:50:36;5.00;99.90
29813;DHT22;16707;48.106;11.548;2024-02-21T01:53:02;5.00;99.90
29813;DHT22;16707;48.106;11.548;2024-02-21T01:55:29;5.00;99.90
29813;DHT22;16707;48.106;11.548;2024-02-21T01:57:57;5.00;99.90
29813;DHT22;16707;48.106;11.548;2024-02-21T02:00:24;5.10;99.90
29813;DHT22;16707;48.106;11.548;2024-02-21T02:02:51;5.20;99.90
29813;DHT22;16707;48.106;11.548;2024-02-21T02:05:18;5.20;99.90
29813;DHT22;16707;48.106;11.548;2024-02-21T02:07:46;5.20;99.90
29813;DHT22;16707;48.106;11.548;2024-02-21T02:10:13;5.20;99.90
29813;DHT22;16707;48.106;11.548;2024-02-21T02:12:39;5.20;99.90
29813;DHT22;16707;48.106;11.548;2024-02-21T02:15:08;5.30;99.90
29813;DHT22;16707;48.106;11.548;2024-02-21T02:17:35;5.30;99.90
29813;DHT22;16707;48.106;11.548;2024-02-21T02:20:01;5.30;99.90
29813;DHT22;16707;48.106;11.548;2024-02-21T02:22:30;5.20;99.90
29813;DHT22;16707;48.106;11.548;2024-02-21T02:24:59;5.20;99.90
29813;DHT22;16707;48.106;11.548;2024-02-21T02:27:26;5.20;99.90
29813;DHT22;16707;48.106;11.548;2024-02-21T02:29:53;5.20;99.90
29813;DHT22;16707;48.106;11.548;2024-02-21T02:32:20;5.30;99.90
29813;DHT22;16707;48.106;11.548;2024-02-21T02:34:46;5.20;99.90
29813;DHT22;16707;48.106;11.548;2024-02-21T02:37:13;5.20;99.90
29813;DHT22;16707;48.106;11.548;2024-02-21T02:39:40;5.10;99.90
29813;DHT22;16707;48.106;11.548;2024-02-21T02:42:08;5.10;99.90
29813;DHT22;16707;48.106;11.548;2024-02-21T02:44:35;5.10;99.90
29813;DHT22;16707;48.106;11.548;2024-02-21T02:47:02;5.10;99.90
29813;DHT22;16707;48.106;11.548;2024-02-21T02:49:28;5.10;99.90
29813;DHT22;16707;48.106;11.548;2024-02-21T02:51:55;5.10;99.90
29813;DHT22;16707;48.106;11.548;2024-02-21T02:54:22;5.10;99.90
29813;DHT22;16707;48.106;11.548;2024-02-21T02:56:49;5.10;99.90
29813;DHT22;16707;48.106;11.548;2024-02-21T02:59:18;5.00;99.90
29813;DHT22;16707;48.106;11.548;2024-02-21T03:01:45;5.10;99.90
29813;DHT22;16707;48.106;11.548;2024-02-21T03:04:11;5.10;99.90
29813;DHT22;16707;48.106;11.548;2024-02-21T03:06:38;5.00;99.90
29813;DHT22;16707;48.106;11.548;2024-02-21T03:09:05;5.00;99.90
29813;DHT22;16707;48.106;11.548;2024-02-21T03:11:33;5.10;99.90
29813;DHT22;16707;48.106;11.548;2024-02-21T03:14:00;5.10;99.90
29813;DHT22;16707;48.106;11.548;2024-02-21T03:16:28;5.00;99.90
29813;DHT22;16707;48.106;11.548;2024-02-21T03:18:55;5.00;99.90
29813;DHT22;16707;48.106;11.548;2024-02-21T03:21:22;5.00;99.90
29813;DHT22;16707;48.106;11.548;2024-02-21T03:23:49;4.90;99.90
29813;DHT22;16707;48.106;11.548;2024-02-21T03:26:15;4.90;99.90
29813;DHT22;16707;48.106;11.548;2024-02-21T03:28:42;4.90;99.90
29813;DHT22;16707;48.106;11.548;2024-02-21T03:31:11;5.00;99.90
29813;DHT22;16707;48.106;11.548;2024-02-21T03:33:42;4.90;99.90
29813;DHT22;16707;48.106;11.548;2024-02-21T03:36:12;4.90;99.90
29813;DHT22;16707;48.106;11.548;2024-02-21T03:38:39;4.90;99.90
29813;DHT22;16707;48.106;11.548;2024-02-21T03:41:06;4.90;99.90
29813;DHT22;16707;48.106;11.548;2024-02-21T03:43:32;4.90;99.90
29813;DHT22;16707;48.106;11.548;2024-02-21T03:45:59;4.90;99.90
29813;DHT22;16707;48.106;11.548;2024-02-21T03:48:26;4.90;99.90
29813;DHT22;16707;48.106;11.548;2024-02-21T03:50:54;4.90;99.90
29813;DHT22;16707;48.106;11.548;2024-02-21T03:53:21;4.90;99.90
29813;DHT22;16707;48.106;11.548;2024-02-21T03:55:48;5.00;99.90
29813;DHT22;16707;48.106;11.548;2024-02-21T03:58:14;5.00;99.90
29813;DHT22;16707;48.106;11.548;2024-02-21T04:00:41;5.00;99.90
29813;DHT22;16707;48.106;11.548;2024-02-21T04:03:08;4.90;99.90
29813;DHT22;16707;48.106;11.548;2024-02-21T04:05:35;5.00;99.90
29813;DHT22;16707;48.106;11.548;2024-02-21T04:08:04;4.90;99.90
29813;DHT22;16707;48.106;11.548;2024-02-21T04:10:31;4.90;99.90
29813;DHT22;16707;48.106;11.548;2024-02-21T04:12:58;4.90;99.90
29813;DHT22;16707;48.106;11.548;2024-02-21T04:15:24;4.80;99.90
29813;DHT22;16707;48.106;11.548;2024-02-21T04:17:51;4.90;99.90
29813;DHT22;16707;48.106;11.548;2024-02-21T04:20:18;4.80;99.90
29813;DHT22;16707;48.106;11.548;2024-02-21T04:22:45;4.80;99.90
29813;DHT22;16707;48.106;11.548;2024-02-21T04:25:13;4.70;99.90
29813;DHT22;16707;48.106;11.548;2024-02-21T04:27:40;4.60;99.90
29813;DHT22;16707;48.106;11.548;2024-02-21T04:30:07;4.60;99.90
29813;DHT22;16707;48.106;11.548;2024-02-21T04:32:34;4.40;99.90
29813;DHT22;16707;48.106;11.548;2024-02-21T04:35:01;4.40;99.90
29813;DHT22;16707;48.106;11.548;2024-02-21T04:37:28;4.30;99.90
29813;DHT22;16707;48.106;11.548;2024-02-21T04:39:55;4.30;99.90
29813;DHT22;16707;48.106;11.548;2024-02-21T04:42:23;4.20;99.90
29813;DHT22;16707;48.106;11.548;2024-02-21T04:44:49;4.20;99.90
29813;DHT22;16707;48.106;11.548;2024-02-21T04:47:16;4.20;99.90
29813;DHT22;16707;48.106;11.548;2024-02-21T04:49:44;4.00;99.90
29813;DHT22;16707;48.106;11.548;2024-02-21T04:52:11;3.90;99.90
29813;DHT22;16707;48.106;11.548;2024-02-21T04:54:38;3.80;99.90
29813;DHT22;16707;48.106;11.548;2024-02-21T04:57:05;3.80;99.90
29813;DHT22;16707;48.106;11.548;2024-02-21T04:59:33;3.70;99.90
29813;DHT22;16707;48.106;11.548;2024-02-21T05:02:01;3.60;99.90
29813;DHT22;16707;48.106;11.548;2024-02-21T05:04:28;3.50;99.90
29813;DHT22;16707;48.106;11.548;2024-02-21T05:06:54;3.40;99.90
29813;DHT22;16707;48.106;11.548;2024-02-21T05:09:21;3.40;99.90
29813;DHT22;16707;48.106;11.548;2024-02-21T05:11:48;3.40;99.90
29813;DHT22;16707;48.106;11.548;2024-02-21T05:14:14;3.30;99.90
29813;DHT22;16707;48.106;11.548;2024-02-21T05:16:42;3.30;99.90
29813;DHT22;16707;48.106;11.548;2024-02-21T05:19:09;3.20;99.90
29813;DHT22;16707;48.106;11.548;2024-02-21T05:21:36;3.10;99.90
29813;DHT22;16707;48.106;11.548;2024-02-21T05:24:03;3.10;99.90
29813;DHT22;16707;48.106;11.548;2024-02-21T05:26:29;3.10;99.90
29813;DHT22;16707;48.106;11.548;2024-02-21T05:28:56;3.10;99.90
29813;DHT22;16707;48.106;11.548;2024-02-21T05:31:24;3.20;99.90
29813;DHT22;16707;48.106;11.548;2024-02-21T05:33:53;3.20;99.90
29813;DHT22;16707;48.106;11.548;2024-02-21T05:36:19;3.30;99.90
29813;DHT22;16707;48.106;11.548;2024-02-21T05:38:46;3.40;99.90
29813;DHT22;16707;48.106;11.548;2024-02-21T05:41:13;3.50;99.90
29813;DHT22;16707;48.106;11.548;2024-02-21T05:43:40;3.60;99.90
29813;DHT22;16707;48.106;11.548;2024-02-21T05:46:06;3.70;99.90
29813;DHT22;16707;48.106;11.548;2024-02-21T05:48:33;3.70;99.90
29813;DHT22;16707;48.106;11.548;2024-02-21T05:51:02;3.70;99.90
29813;DHT22;16707;48.106;11.548;2024-02-21T05:53:29;3.70;99.90
29813;DHT22;16707;48.106;11.548;2024-02-21T05:55:56;3.70;99.90
29813;DHT22;16707;48.106;11.548;2024-02-21T05:58:22;3.60;99.90
29813;DHT22;16707;48.106;11.548;2024-02-21T06:00:49;3.70;99.90
29813;DHT22;16707;48.106;11.548;2024-02-21T06:03:16;3.70;99.90
29813;DHT22;16707;48.106;11.548;2024-02-21T06:05:43;3.60;99.90
29813;DHT22;16707;48.106;11.548;2024-02-21T06:08:11;3.50;99.90
29813;DHT22;16707;48.106;11.548;2024-02-21T06:10:38;3.40;99.90
29813;DHT22;16707;48.106;11.548;2024-02-21T06:13:05;3.60;99.90
29813;DHT22;16707;48.106;11.548;2024-02-21T06:15:31;3.80;99.90
29813;DHT22;16707;48.106;11.548;2024-02-21T06:17:58;3.90;99.90
29813;DHT22;16707;48.106;11.548;2024-02-21T06:20:25;3.90;99.90
29813;DHT22;16707;48.106;11.548;2024-02-21T06:22:53;3.90;99.90
29813;DHT22;16707;48.106;11.548;2024-02-21T06:25:21;3.90;99.90
29813;DHT22;16707;48.106;11.548;2024-02-21T06:27:47;4.00;99.90
29813;DHT22;16707;48.106;11.548;2024-02-21T06:30:14;4.00;99.90
29813;DHT22;16707;48.106;11.548;2024-02-21T06:32:41;4.30;99.90
29813;DHT22;16707;48.106;11.548;2024-02-21T06:35:08;4.40;99.90
29813;DHT22;16707;48.106;11.548;2024-02-21T06:37:34;4.50;99.90
29813;DHT22;16707;48.106;11.548;2024-02-21T06:40:01;4.60;99.90
29813;DHT22;16707;48.106;11.548;2024-02-21T06:42:30;4.50;99.90
29813;DHT22;16707;48.106;11.548;2024-02-21T06:44:57;4.60;99.90
29813;DHT22;16707;48.106;11.548;2024-02-21T06:47:24;4.60;99.90
29813;DHT22;16707;48.106;11.548;2024-02-21T06:49:50;4.80;99.90
29813;DHT22;16707;48.106;11.548;2024-02-21T06:52:17;4.90;99.90
29813;DHT22;16707;48.106;11.548;2024-02-21T06:54:45;5.00;99.90
29813;DHT22;16707;48.106;11.548;2024-02-21T06:57:12;5.20;99.90
29813;DHT22;16707;48.106;11.548;2024-02-21T06:59:40;5.30;99.90
29813;DHT22;16707;48.106;11.548;2024-02-21T07:02:07;5.40;99.90
29813;DHT22;16707;48.106;11.548;2024-02-21T07:04:34;5.40;99.90
29813;DHT22;16707;48.106;11.548;2024-02-21T07:07:03;5.50;99.90
29813;DHT22;16707;48.106;11.548;2024-02-21T07:09:30;5.60;99.90
29813;DHT22;16707;48.106;11.548;2024-02-21T07:11:57;5.60;99.90
29813;DHT22;16707;48.106;11.548;2024-02-21T07:14:24;5.70;99.90
29813;DHT22;16707;48.106;11.548;2024-02-21T07:16:52;5.80;99.90
29813;DHT22;16707;48.106;11.548;2024-02-21T07:19:19;5.90;99.90
29813;DHT22;16707;48.106;11.548;2024-02-21T07:21:46;6.10;99.90
29813;DHT22;16707;48.106;11.548;2024-02-21T07:24:13;6.20;99.90
29813;DHT22;16707;48.106;11.548;2024-02-21T07:26:41;6.40;99.90
29813;DHT22;16707;48.106;11.548;2024-02-21T07:29:08;6.60;99.90
29813;DHT22;16707;48.106;11.548;2024-02-21T07:31:38;6.60;99.90
29813;DHT22;16707;48.106;11.548;2024-02-21T07:34:06;6.80;99.90
29813;DHT22;16707;48.106;11.548;2024-02-21T07:36:33;6.90;99.90
29813;DHT22;16707;48.106;11.548;2024-02-21T07:38:59;6.90;99.90
29813;DHT22;16707;48.106;11.548;2024-02-21T07:41:26;6.80;99.90
29813;DHT22;16707;48.106;11.548;2024-02-21T07:43:54;6.70;99.90
29813;DHT22;16707;48.106;11.548;2024-02-21T07:46:20;6.60;99.90
29813;DHT22;16707;48.106;11.548;2024-02-21T07:48:47;6.40;99.90
29813;DHT22;16707;48.106;11.548;2024-02-21T07:51:15;6.20;99.90
29813;DHT22;16707;48.106;11.548;2024-02-21T07:53:44;6.10;99.90
29813;DHT22;16707;48.106;11.548;2024-02-21T07:56:11;6.00;99.90
29813;DHT22;16707;48.106;11.548;2024-02-21T07:58:39;6.10;99.90
29813;DHT22;16707;48.106;11.548;2024-02-21T08:01:06;6.40;99.90
29813;DHT22;16707;48.106;11.548;2024-02-21T08:03:32;6.70;99.90
29813;DHT22;16707;48.106;11.548;2024-02-21T08:05:59;7.00;99.90
29813;DHT22;16707;48.106;11.548;2024-02-21T08:08:27;7.20;99.90
29813;DHT22;16707;48.106;11.548;2024-02-21T08:10:54;7.20;99.90
29813;DHT22;16707;48.106;11.548;2024-02-21T08:13:21;7.10;99.90
29813;DHT22;16707;48.106;11.548;2024-02-21T08:15:47;6.90;99.90
29813;DHT22;16707;48.106;11.548;2024-02-21T08:18:14;6.60;99.90
29813;DHT22;16707;48.106;11.548;2024-02-21T08:20:41;6.60;99.90
29813;DHT22;16707;48.106;11.548;2024-02-21T08:23:08;6.60;99.90
29813;DHT22;16707;48.106;11.548;2024-02-21T08:25:37;6.50;99.90
29813;DHT22;16707;48.106;11.548;2024-02-21T08:28:07;6.70;99.90
29813;DHT22;16707;48.106;11.548;2024-02-21T08:30:34;6.90;99.90
29813;DHT22;16707;48.106;11.548;2024-02-21T08:33:00;7.00;99.50
29813;DHT22;16707;48.106;11.548;2024-02-21T08:35:29;7.10;98.80
29813;DHT22;16707;48.106;11.548;2024-02-21T08:37:55;7.40;98.20
29813;DHT22;16707;48.106;11.548;2024-02-21T08:40:22;7.60;97.80
29813;DHT22;16707;48.106;11.548;2024-02-21T08:42:51;7.80;97.00
29813;DHT22;16707;48.106;11.548;2024-02-21T08:45:19;7.90;96.60
29813;DHT22;16707;48.106;11.548;2024-02-21T08:47:45;8.20;95.70
29813;DHT22;16707;48.106;11.548;2024-02-21T08:50:12;8.30;94.90
29813;DHT22;16707;48.106;11.548;2024-02-21T08:52:39;8.40;94.10
29813;DHT22;16707;48.106;11.548;2024-02-21T08:55:06;8.60;93.40
29813;DHT22;16707;48.106;11.548;2024-02-21T08:57:33;8.50;93.10
29813;DHT22;16707;48.106;11.548;2024-02-21T09:00:04;8.50;92.90
29813;DHT22;16707;48.106;11.548;2024-02-21T09:02:35;8.70;91.60
29813;DHT22;16707;48.106;11.548;2024-02-21T09:05:03;8.70;91.20
29813;DHT22;16707;48.106;11.548;2024-02-21T09:07:30;8.80;91.00
29813;DHT22;16707;48.106;11.548;2024-02-21T09:09:57;9.00;90.30
29813;DHT22;16707;48.106;11.548;2024-02-21T09:12:23;9.00;89.60
29813;DHT22;16707;48.106;11.548;2024-02-21T09:14:50;9.10;88.80
29813;DHT22;16707;48.106;11.548;2024-02-21T09:17:18;9.30;88.10
29813;DHT22;16707;48.106;11.548;2024-02-21T09:19:46;9.40;87.40
29813;DHT22;16707;48.106;11.548;2024-02-21T09:22:13;9.50;86.80
29813;DHT22;16707;48.106;11.548;2024-02-21T09:24:40;9.60;86.90
29813;DHT22;16707;48.106;11.548;2024-02-21T09:27:06;9.70;88.60
29813;DHT22;16707;48.106;11.548;2024-02-21T09:29:33;9.80;85.90
29813;DHT22;16707;48.106;11.548;2024-02-21T09:32:00;10.00;85.60
29813;DHT22;16707;48.106;11.548;2024-02-21T09:34:32;10.10;85.20
29813;DHT22;16707;48.106;11.548;2024-02-21T09:36:58;10.20;84.50
29813;DHT22;16707;48.106;11.548;2024-02-21T09:39:25;10.20;83.80
29813;DHT22;16707;48.106;11.548;2024-02-21T09:41:53;10.30;82.30
29813;DHT22;16707;48.106;11.548;2024-02-21T09:44:23;10.50;82.30
29813;DHT22;16707;48.106;11.548;2024-02-21T09:46:52;10.50;79.90
29813;DHT22;16707;48.106;11.548;2024-02-21T09:49:22;10.10;80.30
29813;DHT22;16707;48.106;11.548;2024-02-21T09:51:55;10.00;82.20
29813;DHT22;16707;48.106;11.548;2024-02-21T09:54:23;10.20;82.00
29813;DHT22;16707;48.106;11.548;2024-02-21T09:56:50;10.50;81.80
29813;DHT22;16707;48.106;11.548;2024-02-21T09:59:17;10.80;80.50
29813;DHT22;16707;48.106;11.548;2024-02-21T10:01:44;10.90;79.40
29813;DHT22;16707;48.106;11.548;2024-02-21T10:04:12;11.20;77.90
29813;DHT22;16707;48.106;11.548;2024-02-21T10:06:39;11.50;77.20
29813;DHT22;16707;48.106;11.548;2024-02-21T10:09:07;11.80;72.60
29813;DHT22;16707;48.106;11.548;2024-02-21T10:11:34;11.90;73.90
29813;DHT22;16707;48.106;11.548;2024-02-21T10:14:05;11.90;73.70
29813;DHT22;16707;48.106;11.548;2024-02-21T10:16:32;12.00;69.10
29813;DHT22;16707;48.106;11.548;2024-02-21T10:18:59;12.20;68.10
29813;DHT22;16707;48.106;11.548;2024-02-21T10:21:26;12.30;67.90
29813;DHT22;16707;48.106;11.548;2024-02-21T10:23:52;12.40;66.80
29813;DHT22;16707;48.106;11.548;2024-02-21T10:26:21;12.30;66.20
29813;DHT22;16707;48.106;11.548;2024-02-21T10:28:48;12.20;65.40
29813;DHT22;16707;48.106;11.548;2024-02-21T10:31:23;12.20;65.90
29813;DHT22;16707;48.106;11.548;2024-02-21T10:33:53;12.30;65.60
29813;DHT22;16707;48.106;11.548;2024-02-21T10:36:20;12.40;63.60
29813;DHT22;16707;48.106;11.548;2024-02-21T10:38:47;12.60;64.30
29813;DHT22;16707;48.106;11.548;2024-02-21T10:41:14;12.70;63.60
29813;DHT22;16707;48.106;11.548;2024-02-21T10:43:43;12.80;64.40
29813;DHT22;16707;48.106;11.548;2024-02-21T10:46:12;12.90;62.80
29813;DHT22;16707;48.106;11.548;2024-02-21T10:48:41;13.00;61.90
29813;DHT22;16707;48.106;11.548;2024-02-21T10:51:12;13.10;61.50
29813;DHT22;16707;48.106;11.548;2024-02-21T10:53:42;13.30;61.70
29813;DHT22;16707;48.106;11.548;2024-02-21T10:56:14;13.70;60.20
29813;DHT22;16707;48.106;11.548;2024-02-21T10:58:44;13.90;58.60
29813;DHT22;16707;48.106;11.548;2024-02-21T11:01:12;14.20;58.00
29813;DHT22;16707;48.106;11.548;2024-02-21T11:03:40;14.20;57.50
29813;DHT22;16707;48.106;11.548;2024-02-21T11:06:08;14.40;56.10
29813;DHT22;16707;48.106;11.548;2024-02-21T11:08:35;14.30;54.80
29813;DHT22;16707;48.106;11.548;2024-02-21T11:11:02;14.30;54.90
29813;DHT22;16707;48.106;11.548;2024-02-21T11:13:31;14.50;56.20
29813;DHT22;16707;48.106;11.548;2024-02-21T11:16:07;14.50;54.80
29813;DHT22;16707;48.106;11.548;2024-02-21T11:18:34;14.60;55.00
29813;DHT22;16707;48.106;11.548;2024-02-21T11:21:01;14.60;53.80
29813;DHT22;16707;48.106;11.548;2024-02-21T11:23:28;14.60;53.70
29813;DHT22;16707;48.106;11.548;2024-02-21T11:26:03;14.80;51.70
29813;DHT22;16707;48.106;11.548;2024-02-21T11:28:30;14.80;52.90
29813;DHT22;16707;48.106;11.548;2024-02-21T11:31:04;14.60;52.00
29813;DHT22;16707;48.106;11.548;2024-02-21T11:33:35;14.60;51.60
29813;DHT22;16707;48.106;11.548;2024-02-21T11:36:01;14.70;50.90
29813;DHT22;16707;48.106;11.548;2024-02-21T11:38:30;14.80;50.10
29813;DHT22;16707;48.106;11.548;2024-02-21T11:40:57;15.00;49.40
29813;DHT22;16707;48.106;11.548;2024-02-21T11:43:23;15.10;48.40
29813;DHT22;16707;48.106;11.548;2024-02-21T11:45:50;15.00;48.60
29813;DHT22;16707;48.106;11.548;2024-02-21T11:48:26;15.00;48.40
29813;DHT22;16707;48.106;11.548;2024-02-21T11:50:53;15.10;48.70
29813;DHT22;16707;48.106;11.548;2024-02-21T11:53:20;15.10;49.10
29813;DHT22;16707;48.106;11.548;2024-02-21T11:55:47;15.10;49.20
29813;DHT22;16707;48.106;11.548;2024-02-21T11:58:14;15.20;48.80
29813;DHT22;16707;48.106;11.548;2024-02-21T12:00:41;15.40;49.90
29813;DHT22;16707;48.106;11.548;2024-02-21T12:03:08;15.50;49.00
29813;DHT22;16707;48.106;11.548;2024-02-21T12:05:37;15.50;47.60
29813;DHT22;16707;48.106;11.548;2024-02-21T12:08:03;15.50;47.30
29813;DHT22;16707;48.106;11.548;2024-02-21T12:10:31;15.50;47.20
29813;DHT22;16707;48.106;11.548;2024-02-21T12:13:05;15.60;45.80
29813;DHT22;16707;48.106;11.548;2024-02-21T12:15:32;15.70;45.30
29813;DHT22;16707;48.106;11.548;2024-02-21T12:17:59;15.70;45.20
29813;DHT22;16707;48.106;11.548;2024-02-21T12:20:26;15.80;44.80
29813;DHT22;16707;48.106;11.548;2024-02-21T12:22:54;15.90;43.90
29813;DHT22;16707;48.106;11.548;2024-02-21T12:25:21;15.90;43.50
29813;DHT22;16707;48.106;11.548;2024-02-21T12:27:48;16.00;43.80
29813;DHT22;16707;48.106;11.548;2024-02-21T12:30:15;15.90;42.80
29813;DHT22;16707;48.106;11.548;2024-02-21T12:32:42;15.90;42.80
29813;DHT22;16707;48.106;11.548;2024-02-21T12:35:09;15.90;43.20
29813;DHT22;16707;48.106;11.548;2024-02-21T12:37:36;15.90;42.50
29813;DHT22;16707;48.106;11.548;2024-02-21T12:40:05;15.90;42.60
29813;DHT22;16707;48.106;11.548;2024-02-21T12:42:33;15.80;43.30
29813;DHT22;16707;48.106;11.548;2024-02-21T12:45:01;15.70;43.00
29813;DHT22;16707;48.106;11.548;2024-02-21T12:47:28;15.70;42.20
29813;DHT22;16707;48.106;11.548;2024-02-21T12:49:55;15.60;42.10
29813;DHT22;16707;48.106;11.548;2024-02-21T12:52:22;15.60;40.20
29813;DHT22;16707;48.106;11.548;2024-02-21T12:54:50;15.40;41.40
29813;DHT22;16707;48.106;11.548;2024-02-21T12:57:18;15.20;42.00
29813;DHT22;16707;48.106;11.548;2024-02-21T12:59:45;15.30;42.80
29813;DHT22;16707;48.106;11.548;2024-02-21T13:02:12;15.30;42.40
29813;DHT22;16707;48.106;11.548;2024-02-21T13:04:39;15.30;42.70
29813;DHT22;16707;48.106;11.548;2024-02-21T13:07:06;15.30;43.10
29813;DHT22;16707;48.106;11.548;2024-02-21T13:09:33;15.40;43.90
29813;DHT22;16707;48.106;11.548;2024-02-21T13:12:00;15.50;42.00
29813;DHT22;16707;48.106;11.548;2024-02-21T13:14:29;15.40;42.40
29813;DHT22;16707;48.106;11.548;2024-02-21T13:16:58;15.60;41.90
29813;DHT22;16707;48.106;11.548;2024-02-21T13:19:25;15.40;41.40
29813;DHT22;16707;48.106;11.548;2024-02-21T13:21:51;15.40;41.80
29813;DHT22;16707;48.106;11.548;2024-02-21T13:24:18;15.50;41.40
29813;DHT22;16707;48.106;11.548;2024-02-21T13:26:45;15.30;41.60
29813;DHT22;16707;48.106;11.548;2024-02-21T13:29:12;15.40;41.70
29813;DHT22;16707;48.106;11.548;2024-02-21T13:31:40;15.30;41.80
29813;DHT22;16707;48.106;11.548;2024-02-21T13:34:07;15.30;41.90
29813;DHT22;16707;48.106;11.548;2024-02-21T13:36:34;15.30;41.90
29813;DHT22;16707;48.106;11.548;2024-02-21T13:39:00;15.30;42.10
29813;DHT22;16707;48.106;11.548;2024-02-21T13:41:30;15.30;42.50
29813;DHT22;16707;48.106;11.548;2024-02-21T13:43:57;15.10;42.20
29813;DHT22;16707;48.106;11.548;2024-02-21T13:46:25;15.00;42.50
29813;DHT22;16707;48.106;11.548;2024-02-21T13:48:54;15.10;42.40
29813;DHT22;16707;48.106;11.548;2024-02-21T13:51:29;15.10;41.30
29813;DHT22;16707;48.106;11.548;2024-02-21T13:53:56;15.10;41.30
29813;DHT22;16707;48.106;11.548;2024-02-21T13:56:24;15.10;41.40
29813;DHT22;16707;48.106;11.548;2024-02-21T13:58:52;15.10;42.60
29813;DHT22;16707;48.106;11.548;2024-02-21T14:01:18;15.10;42.50
29813;DHT22;16707;48.106;11.548;2024-02-21T14:03:45;15.20;42.30
29813;DHT22;16707;48.106;11.548;2024-02-21T14:06:13;15.20;41.90
29813;DHT22;16707;48.106;11.548;2024-02-21T14:08:40;15.30;42.00
29813;DHT22;16707;48.106;11.548;2024-02-21T14:11:07;15.20;41.70
29813;DHT22;16707;48.106;11.548;2024-02-21T14:13:34;15.20;41.60
29813;DHT22;16707;48.106;11.548;2024-02-21T14:16:01;15.20;41.80
29813;DHT22;16707;48.106;11.548;2024-02-21T14:18:28;15.10;42.30
29813;DHT22;16707;48.106;11.548;2024-02-21T14:20:55;15.10;42.20
29813;DHT22;16707;48.106;11.548;2024-02-21T14:23:23;15.00;42.10
29813;DHT22;16707;48.106;11.548;2024-02-21T14:25:50;14.90;43.60
29813;DHT22;16707;48.106;11.548;2024-02-21T14:28:17;14.90;43.20
29813;DHT22;16707;48.106;11.548;2024-02-21T14:30:44;14.90;43.40
29813;DHT22;16707;48.106;11.548;2024-02-21T14:33:12;14.90;43.40
29813;DHT22;16707;48.106;11.548;2024-02-21T14:35:39;14.80;43.50
29813;DHT22;16707;48.106;11.548;2024-02-21T14:38:07;14.70;43.40
29813;DHT22;16707;48.106;11.548;2024-02-21T14:40:35;14.60;43.90
29813;DHT22;16707;48.106;11.548;2024-02-21T14:43:02;14.60;44.70
29813;DHT22;16707;48.106;11.548;2024-02-21T14:45:29;14.50;44.00
29813;DHT22;16707;48.106;11.548;2024-02-21T14:47:56;14.50;44.00
29813;DHT22;16707;48.106;11.548;2024-02-21T14:50:23;14.40;44.50
29813;DHT22;16707;48.106;11.548;2024-02-21T14:52:50;14.40;44.00
29813;DHT22;16707;48.106;11.548;2024-02-21T14:55:17;14.40;44.80
29813;DHT22;16707;48.106;11.548;2024-02-21T14:57:45;14.40;45.00
29813;DHT22;16707;48.106;11.548;2024-02-21T15:00:13;14.20;45.10
29813;DHT22;16707;48.106;11.548;2024-02-21T15:02:40;14.20;46.30
29813;DHT22;16707;48.106;11.548;2024-02-21T15:05:07;14.30;45.50
29813;DHT22;16707;48.106;11.548;2024-02-21T15:07:34;14.20;45.20
29813;DHT22;16707;48.106;11.548;2024-02-21T15:10:00;14.10;46.00
29813;DHT22;16707;48.106;11.548;2024-02-21T15:12:28;14.00;45.90
29813;DHT22;16707;48.106;11.548;2024-02-21T15:14:58;14.00;46.10
29813;DHT22;16707;48.106;11.548;2024-02-21T15:17:25;14.00;45.80
29813;DHT22;16707;48.106;11.548;2024-02-21T15:19:52;14.00;46.60
29813;DHT22;16707;48.106;11.548;2024-02-21T15:22:20;13.80;47.20
29813;DHT22;16707;48.106;11.548;2024-02-21T15:24:48;13.70;47.10